Benton, CA (93512)

6:14 PM PDT on October 25, 2014 (GMT -0700)
Mammoth Yosemite | Change Station
CLOSE
Current Station
Airport
Location: Mammoth,
Elevation: 7129 ft
Nearby Weather Stations
Active Advisory: Wind Advisory

Elev 7129 ft 37.62 °N, 118.84 °W | Updated 19 minutes ago

Clear
Clear
52 °F
Feels Like 52 °F
N
15
Wind Variable Wind from WSW
Gusts 28 mph

Today
High -- | Low -- °F
--% Chance of Precip.
Yesterday
High -- | Low -- °F
Precip. -- in
7:12 AM 6:03 PM
Waxing Crescent, 5% visible
Pressure 30.13 in
Visibility 10.0 miles
Clouds Clear
Dew Point 14 °F
Humidity 22%
Rainfall 0.00 in
Snow Depth Not available.
UV 0 out of 12
Pollen 2.00 out of 12
Air Quality Not available.
Flu Activity Sporadic
METAR KMMH 260055Z AUTO 24013G24KT 10SM CLR 11/M10 A3013 RMK AO1

More Conditions Fewer Conditions

Pressure 30.13 in
Visibility 10.0 miles
Clouds Clear
Dew Point 14 °F
Humidity 22%
Rainfall 0.00 in
Snow Depth Not available.
UV 0 out of 12
Pollen 2.00 out of 12
Air Quality Not available.
Flu Activity Sporadic
METAR KMMH 260055Z AUTO 24013G24KT 10SM CLR 11/M10 A3013 RMK AO1

More Conditions Fewer Conditions

10-Day Weather Forecast

Almanac

Astronomy

Oct. 25, 2014 Rise Set
Actual Time 7:12 AM PDT 6:03 PM PDT
Civil Twilight 6:46 AM PDT 6:30 PM PDT
Nautical Twilight 6:15 AM PDT 7:01 PM PDT
Astronomical Twilight 5:44 AM PDT 7:31 PM PDT
Moon 8:55 AM PDT (10/25) 7:32 PM PDT (10/25)
Length of Visible Light 11h 44m
Length of Day
10h 50m
Tomorrow will be 2m 14s shorter.
Waxing Crescent, 5% of the Moon is Illuminated
Today
Waxing Crescent
Oct 30
First Quarter
Nov 6
Full
Nov 14
Last Quarter
Nov 22
New

Today's Extremes

State Highs State Lows

Community

WunderPhotos

Upload Photos

1,765,058 photos uploaded!

Nearby

Snow Depth

Station Depth Elevation
Virginia Lakes Ridge 0 in 9200 ft
Leavitt Meadows 0 in 7200 ft
Leavitt Lake 1 in 9400 ft
Sonora Pass 0 in 8800 ft
Poison Flat 0 in 7900 ft

Earthquake Activity

City Distance Mag. Time & Date
Lone Pine, California 120 miles 3.6 7:31 AM PDT
2014-10-25
Coalinga, California 163 miles 2.5 11:01 PM PDT
2014-10-24
Kettleman City, California 148 miles 2.5 9:08 AM PDT
2014-10-22
Minimum magnitude displayed is 2.5.

Coastal Water Temperatures

Place Temperature
No Stations Reporting

Nearby Weather Stations